createdAt,value
2018-11-20T00:05:29.038Z,97131.97
2018-11-20T00:10:58.340Z,97136.27
2018-11-20T00:16:27.563Z,97130.77
2018-11-20T00:22:06.320Z,97120.54
2018-11-20T00:27:21.456Z,97115.14
2018-11-20T00:32:50.805Z,97100.94
2018-11-20T00:38:23.266Z,97094.09
2018-11-20T00:43:58.643Z,97103.37
2018-11-20T00:49:34.171Z,97100.48
2018-11-20T00:54:49.072Z,97099.96
2018-11-20T01:00:10.634Z,97107.28
2018-11-20T01:05:32.793Z,97110.62
2018-11-20T01:11:05.104Z,97111.91
2018-11-20T01:16:27.312Z,97106.70
2018-11-20T01:22:08.699Z,97092.53
2018-11-20T01:27:25.779Z,97093.21
2018-11-20T01:32:48.034Z,97094.93
2018-11-20T01:38:09.797Z,97092.18
2018-11-20T01:43:48.162Z,97058.74
2018-11-20T01:49:03.875Z,97054.96
2018-11-20T01:54:33.296Z,97060.98
2018-11-20T01:59:46.531Z,97050.05
2018-11-20T02:05:28.132Z,97033.00
2018-11-20T02:10:45.104Z,97033.16
2018-11-20T02:16:14.589Z,97024.32
2018-11-20T02:21:44.379Z,97031.84
2018-11-20T02:27:06.440Z,97027.58
2018-11-20T02:32:24.536Z,97030.36
2018-11-20T02:37:50.665Z,97020.66
2018-11-20T02:43:12.598Z,97014.30
2018-11-20T02:48:51.056Z,96999.91
2018-11-20T02:54:13.233Z,97005.92
2018-11-20T02:59:42.300Z,97011.88
2018-11-20T03:05:04.207Z,96988.31
2018-11-20T03:10:33.527Z,97001.09
2018-11-20T03:16:03.010Z,96992.89
2018-11-20T03:21:26.353Z,96999.65
2018-11-20T03:26:49.711Z,97002.85
2018-11-20T03:32:08.230Z,96993.42
2018-11-20T03:37:43.901Z,97008.57
2018-11-20T03:42:58.976Z,97006.34
2018-11-20T03:48:38.064Z,97003.99
2018-11-20T03:53:55.968Z,97005.29
2018-11-20T03:59:21.232Z,96992.66
2018-11-20T04:04:47.197Z,97002.14
2018-11-20T04:10:13.235Z,97012.87
2018-11-20T04:15:54.765Z,97007.44
2018-11-20T04:21:24.080Z,96983.13
2018-11-20T04:26:42.275Z,96985.59
2018-11-20T04:32:30.982Z,96991.44
2018-11-20T04:38:00.485Z,96980.69
2018-11-20T04:43:36.573Z,96987.70
2018-11-20T04:49:19.016Z,96978.04
2018-11-20T04:55:01.480Z,96984.95
2018-11-20T05:00:43.913Z,96981.52
2018-11-20T05:06:26.350Z,96982.27
2018-11-20T05:12:08.822Z,96959.42
2018-11-20T05:17:51.260Z,96964.34
2018-11-20T05:23:33.713Z,96962.64
2018-11-20T05:29:10.001Z,96958.08
2018-11-20T05:34:52.472Z,96951.16
2018-11-20T05:40:34.995Z,96949.50
2018-11-20T05:46:17.422Z,96946.89
2018-11-20T05:51:59.887Z,96947.84
2018-11-20T05:57:42.363Z,96942.55
2018-11-20T06:03:24.811Z,96940.72
2018-11-20T06:09:07.276Z,96945.20
2018-11-20T06:14:49.735Z,96948.94
2018-11-20T06:20:32.176Z,96945.73
2018-11-20T06:26:14.612Z,96953.55
2018-11-20T06:31:57.070Z,96949.19
2018-11-20T06:37:39.515Z,96951.56
2018-11-20T06:43:21.955Z,96947.64
2018-11-20T06:49:04.418Z,96966.25
2018-11-20T06:54:46.869Z,96967.52
2018-11-20T07:00:29.313Z,96965.54
2018-11-20T07:06:11.775Z,96972.48
2018-11-20T07:11:54.249Z,96984.84
2018-11-20T07:17:39.337Z,96974.47
2018-11-20T07:23:21.820Z,96965.00
2018-11-20T07:29:04.258Z,96961.98
2018-11-20T07:34:46.728Z,96978.20
2018-11-20T07:40:29.150Z,96975.65
2018-11-20T07:46:11.598Z,96980.75
2018-11-20T07:51:54.055Z,96982.36
2018-11-20T07:57:28.713Z,96974.98
2018-11-20T08:03:11.175Z,96970.41
2018-11-20T08:08:53.616Z,96979.67
2018-11-20T08:14:36.076Z,96959.88
2018-11-20T08:20:18.505Z,96948.61
2018-11-20T08:26:01.135Z,96951.52
2018-11-20T08:31:43.395Z,96961.28
2018-11-20T08:37:25.865Z,96947.48
2018-11-20T08:43:03.103Z,96928.87
2018-11-20T08:48:45.549Z,96916.92
2018-11-20T08:54:27.997Z,96912.31
2018-11-20T09:00:10.494Z,96916.81
2018-11-20T09:05:46.758Z,96904.16
2018-11-20T09:11:29.208Z,96901.02
2018-11-20T09:17:11.665Z,96913.11
2018-11-20T09:22:54.137Z,96925.48
2018-11-20T09:28:36.593Z,96923.52
2018-11-20T09:34:19.080Z,96922.75
2018-11-20T09:40:02.355Z,96933.67
2018-11-20T09:46:10.958Z,96940.27
2018-11-20T09:51:53.403Z,96937.43
2018-11-20T09:57:35.880Z,96932.31
2018-11-20T10:03:18.345Z,96936.48
2018-11-20T10:08:53.470Z,96941.83
2018-11-20T10:14:36.013Z,96953.81
2018-11-20T10:20:18.397Z,96944.72
2018-11-20T10:26:00.941Z,96938.93
2018-11-20T10:31:43.312Z,96925.21
2018-11-20T10:37:25.780Z,96943.30
2018-11-20T10:43:08.246Z,96933.44
2018-11-20T10:48:50.700Z,96924.85
2018-11-20T10:54:33.188Z,96933.97
2018-11-20T11:00:15.643Z,96927.56
2018-11-20T11:05:58.127Z,96905.31
2018-11-20T11:11:40.695Z,96895.11
2018-11-20T11:17:23.092Z,96894.41
2018-11-20T11:23:05.552Z,96888.19
2018-11-20T11:28:44.888Z,96881.56
2018-11-20T11:34:27.438Z,96890.38
2018-11-20T11:40:09.914Z,96895.51
2018-11-20T11:45:45.839Z,96894.53
2018-11-20T11:51:28.299Z,96904.23
2018-11-20T11:57:10.765Z,96907.05
2018-11-20T12:08:35.322Z,96921.00
2018-11-20T12:14:17.362Z,96928.78
2018-11-20T12:19:59.928Z,96943.38
2018-11-20T12:25:42.390Z,96934.66
2018-11-20T12:31:24.857Z,96937.11
2018-11-20T12:37:07.318Z,96930.02
2018-11-20T12:42:49.770Z,96922.27
2018-11-20T12:48:32.265Z,96926.36
2018-11-20T12:54:15.122Z,96918.91
2018-11-20T12:59:57.213Z,96919.91
2018-11-20T13:05:39.702Z,96929.34
2018-11-20T13:11:22.168Z,96926.48
2018-11-20T13:17:06.852Z,96928.98
2018-11-20T13:22:47.209Z,96929.68
2018-11-20T13:28:21.128Z,96937.11
2018-11-20T13:34:03.624Z,96938.84
2018-11-20T13:39:46.095Z,96937.23
2018-11-20T13:45:28.563Z,96938.48
2018-11-20T13:51:11.842Z,96947.50
2018-11-20T13:56:53.529Z,96959.97
2018-11-20T14:02:36.032Z,96955.94
2018-11-20T14:08:19.874Z,96967.59
2018-11-20T14:14:04.097Z,96964.42
2018-11-20T14:19:46.549Z,96964.53
2018-11-20T14:25:39.759Z,96966.10
2018-11-20T14:31:15.767Z,96984.75
2018-11-20T14:36:58.223Z,96990.70
2018-11-20T14:42:40.709Z,96999.11
2018-11-20T14:48:23.442Z,97004.55
2018-11-20T14:54:11.828Z,97010.78
2018-11-20T14:59:35.247Z,97014.13
2018-11-20T15:04:57.214Z,97018.91
2018-11-20T15:10:35.629Z,97023.70
2018-11-20T15:15:59.033Z,97032.02
2018-11-20T15:21:34.698Z,97038.59
2018-11-20T15:26:56.934Z,97045.58
2018-11-20T15:32:22.149Z,97048.23
2018-11-20T15:37:49.113Z,97052.27
2018-11-20T15:43:12.488Z,97062.23
2018-11-20T15:49:29.091Z,97063.62
2018-11-20T15:55:10.024Z,97075.11
2018-11-20T16:00:51.743Z,97071.84
2018-11-20T16:06:33.446Z,97058.20
2018-11-20T16:12:15.163Z,97048.94
2018-11-20T16:17:57.107Z,97045.75
2018-11-20T16:23:38.909Z,97053.00
2018-11-20T16:29:20.625Z,97055.81
2018-11-20T16:35:21.923Z,97069.84
2018-11-20T16:41:03.616Z,97067.36
2018-11-20T16:46:45.312Z,97076.16
2018-11-20T16:52:27.038Z,97084.61
2018-11-20T16:58:08.816Z,97105.09
2018-11-20T17:03:50.555Z,97113.80
2018-11-20T17:09:32.301Z,97127.30
2018-11-20T17:15:14.072Z,97132.77
2018-11-20T17:20:55.774Z,97146.91
2018-11-20T17:26:33.247Z,97146.57
2018-11-20T17:32:14.955Z,97148.50
2018-11-20T17:37:56.677Z,97161.27
2018-11-20T17:43:38.450Z,97164.36
2018-11-20T17:49:23.251Z,97161.12
2018-11-20T17:55:04.964Z,97177.87
2018-11-20T18:00:46.709Z,97187.19
2018-11-20T18:06:31.925Z,97196.52
2018-11-20T18:12:10.176Z,97207.61
2018-11-20T18:17:51.924Z,97226.87
2018-11-20T18:23:33.702Z,97222.27
2018-11-20T18:29:15.435Z,97232.88
2018-11-20T18:34:57.241Z,97241.23
2018-11-20T18:40:39.022Z,97239.62
2018-11-20T18:46:20.792Z,97239.53
2018-11-20T18:52:02.580Z,97239.20
2018-11-20T18:57:44.346Z,97255.83
2018-11-20T19:03:26.109Z,97247.05
2018-11-20T19:09:07.844Z,97259.80
2018-11-20T19:14:49.637Z,97251.50
2018-11-20T19:20:31.383Z,97250.87
2018-11-20T19:26:13.136Z,97261.56
2018-11-20T19:31:54.918Z,97266.35
2018-11-20T19:37:36.703Z,97266.73
2018-11-20T19:43:18.548Z,97269.91
2018-11-20T19:49:00.326Z,97261.45
2018-11-20T19:54:42.079Z,97257.30
2018-11-20T20:00:26.369Z,97279.17
2018-11-20T20:06:08.132Z,97280.30
2018-11-20T20:11:49.872Z,97282.83
2018-11-20T20:17:31.616Z,97287.35
2018-11-20T20:23:13.350Z,97295.16
2018-11-20T20:28:49.313Z,97301.83
2018-11-20T20:34:31.051Z,97312.91
2018-11-20T20:40:12.828Z,97330.63
2018-11-20T20:45:48.432Z,97337.55
2018-11-20T20:51:39.451Z,97348.59
2018-11-20T20:57:00.289Z,97357.31
2018-11-20T21:02:21.221Z,97356.30
2018-11-20T21:07:43.274Z,97357.52
2018-11-20T21:13:02.860Z,97358.34
2018-11-20T21:18:25.189Z,97374.91
2018-11-20T21:23:47.452Z,97380.44
2018-11-20T21:29:16.461Z,97378.84
2018-11-20T21:34:38.633Z,97386.53
2018-11-20T21:40:06.943Z,97391.06
2018-11-20T21:45:28.523Z,97397.03
2018-11-20T21:50:51.210Z,97397.26
2018-11-20T21:56:16.861Z,97396.00
2018-11-20T22:01:58.146Z,97396.88
2018-11-20T22:07:29.192Z,97404.10
2018-11-20T22:13:06.577Z,97404.75
2018-11-20T22:18:29.030Z,97399.88
2018-11-20T22:24:03.510Z,97399.19
2018-11-20T22:29:35.153Z,97407.15
2018-11-20T22:34:55.824Z,97415.14
2018-11-20T22:40:16.813Z,97417.21
2018-11-20T22:45:37.613Z,97419.51
2018-11-20T22:51:14.875Z,97410.17
2018-11-20T22:56:36.002Z,97408.55
2018-11-20T23:01:57.141Z,97406.25
2018-11-20T23:07:18.043Z,97401.07
2018-11-20T23:12:20.693Z,97401.40
2018-11-20T23:17:23.374Z,97385.34
2018-11-20T23:22:26.115Z,97381.57
2018-11-20T23:27:29.075Z,97376.22
2018-11-20T23:32:31.717Z,97378.14
2018-11-20T23:37:34.365Z,97374.47
2018-11-20T23:42:37.266Z,97372.94
2018-11-20T23:47:40.057Z,97377.68
2018-11-20T23:52:42.842Z,97375.66
2018-11-20T23:57:45.533Z,97380.01
